createdAt,value
2022-11-16T00:01:27.129Z,11.93
2022-11-16T00:03:58.006Z,10.48
2022-11-16T00:06:27.190Z,11.07
2022-11-16T00:09:21.966Z,5.55
2022-11-16T00:11:56.524Z,6.47
2022-11-16T00:14:28.077Z,6.65
2022-11-16T00:16:58.289Z,7.45
2022-11-16T00:19:28.225Z,7.55
2022-11-16T00:21:57.289Z,6.57
2022-11-16T00:24:26.578Z,8.27
2022-11-16T00:26:56.689Z,5.32
2022-11-16T00:29:27.819Z,4.38
2022-11-16T00:31:57.383Z,4.65
2022-11-16T00:34:27.041Z,4.05
2022-11-16T00:36:56.052Z,3.70
2022-11-16T00:39:25.164Z,3.55
2022-11-16T00:41:54.089Z,3.05
2022-11-16T00:44:23.064Z,5.07
2022-11-16T00:46:52.126Z,2.50
2022-11-16T00:49:21.171Z,2.53
2022-11-16T00:51:50.119Z,2.60
2022-11-16T00:54:19.005Z,2.80
2022-11-16T00:56:47.938Z,2.28
2022-11-16T00:59:16.780Z,2.10
2022-11-16T01:01:45.731Z,2.08
2022-11-16T01:04:14.748Z,4.53
2022-11-16T01:06:43.739Z,4.63
2022-11-16T01:09:20.005Z,10.93
2022-11-16T01:12:07.228Z,8.95
2022-11-16T01:14:37.098Z,12.32
2022-11-16T01:17:06.919Z,2.70
2022-11-16T01:19:36.247Z,2.85
2022-11-16T01:24:52.483Z,3.35
2022-11-16T01:27:21.525Z,3.10
2022-11-16T01:29:50.499Z,2.72
2022-11-16T01:32:19.493Z,8.90
2022-11-16T01:34:48.675Z,8.95
2022-11-16T01:37:18.746Z,2.20
2022-11-16T01:39:47.827Z,2.05
2022-11-16T01:42:20.975Z,1.92
2022-11-16T01:44:49.995Z,2.33
2022-11-16T01:47:19.614Z,2.33
2022-11-16T01:49:54.527Z,2.67
2022-11-16T01:52:28.333Z,2.10
2022-11-16T01:57:32.115Z,2.30
2022-11-16T02:00:03.586Z,2.33
2022-11-16T02:02:32.597Z,1.73
2022-11-16T02:05:12.196Z,2.15
2022-11-16T02:08:12.359Z,3.75
2022-11-16T02:10:59.625Z,4.50
2022-11-16T02:13:58.502Z,1.95
2022-11-16T02:16:53.008Z,2.00
2022-11-16T02:20:14.470Z,2.47
2022-11-16T02:22:59.082Z,2.03
2022-11-16T02:28:29.149Z,1.80
2022-11-16T02:31:03.250Z,2.47
2022-11-16T02:33:37.659Z,2.63
2022-11-16T02:36:11.058Z,2.85
2022-11-16T02:38:49.312Z,3.53
2022-11-16T02:41:22.384Z,4.72
2022-11-16T02:43:59.635Z,3.33
2022-11-16T02:46:33.621Z,3.58
2022-11-16T02:49:05.365Z,3.25
2022-11-16T02:51:36.326Z,3.17
2022-11-16T02:54:16.545Z,3.00
2022-11-16T02:56:59.539Z,2.90
2022-11-16T02:59:35.004Z,3.05
2022-11-16T03:02:09.972Z,2.95
2022-11-16T03:04:50.158Z,2.42
2022-11-16T03:07:23.613Z,2.67
2022-11-16T03:09:53.598Z,3.42
2022-11-16T03:12:27.672Z,3.33
2022-11-16T03:15:03.053Z,3.20
2022-11-16T03:17:41.899Z,2.97
2022-11-16T03:20:28.523Z,3.10
2022-11-16T03:23:02.397Z,3.30
2022-11-16T03:25:38.584Z,2.63
2022-11-16T03:28:36.967Z,2.50
2022-11-16T03:31:21.666Z,2.70
2022-11-16T03:33:57.202Z,2.20
2022-11-16T03:36:28.567Z,2.22
2022-11-16T03:39:20.376Z,1.92
2022-11-16T03:41:53.092Z,2.05
2022-11-16T03:44:23.627Z,2.53
2022-11-16T03:46:52.670Z,3.22
2022-11-16T03:49:25.441Z,2.60
2022-11-16T03:51:54.544Z,1.90
2022-11-16T03:54:23.464Z,1.90
2022-11-16T03:56:52.518Z,2.40
2022-11-16T03:59:21.510Z,2.15
2022-11-16T04:01:50.450Z,2.25
2022-11-16T04:04:37.412Z,2.00
2022-11-16T04:07:24.737Z,2.92
2022-11-16T04:10:11.641Z,1.95
2022-11-16T04:13:02.711Z,2.67
2022-11-16T04:15:49.745Z,2.92
2022-11-16T04:18:37.391Z,4.80
2022-11-16T04:21:25.405Z,2.60
2022-11-16T04:24:12.551Z,3.33
2022-11-16T04:27:03.501Z,2.80
2022-11-16T04:29:33.168Z,1.77
2022-11-16T04:32:20.444Z,2.15
2022-11-16T04:35:07.808Z,1.92
2022-11-16T04:37:53.603Z,2.15
2022-11-16T04:40:30.608Z,2.40
2022-11-16T04:43:01.843Z,2.15
2022-11-16T04:45:49.658Z,2.70
2022-11-16T04:48:20.220Z,2.13
2022-11-16T04:50:49.933Z,2.15
2022-11-16T04:53:18.902Z,2.10
2022-11-16T04:55:48.017Z,2.00
2022-11-16T04:58:16.938Z,1.90
2022-11-16T05:00:45.825Z,2.30
2022-11-16T05:03:14.808Z,2.25
2022-11-16T05:05:43.706Z,2.20
2022-11-16T05:08:12.635Z,2.08
2022-11-16T05:10:41.827Z,2.20
2022-11-16T05:13:10.771Z,2.50
2022-11-16T05:15:39.720Z,1.85
2022-11-16T05:18:08.707Z,2.33
2022-11-16T05:20:55.837Z,1.90
2022-11-16T05:23:43.083Z,1.70
2022-11-16T05:26:12.014Z,2.38
2022-11-16T05:28:40.962Z,1.70
2022-11-16T05:31:09.917Z,2.05
2022-11-16T05:33:38.896Z,1.90
2022-11-16T05:36:08.166Z,2.20
2022-11-16T05:38:45.326Z,1.80
2022-11-16T05:41:14.394Z,1.63
2022-11-16T05:43:43.387Z,2.72
2022-11-16T05:46:12.483Z,1.88
2022-11-16T05:48:41.615Z,1.75
2022-11-16T05:51:10.530Z,2.05
2022-11-16T05:53:39.443Z,2.70
2022-11-16T05:56:09.229Z,1.88
2022-11-16T05:58:41.175Z,2.13
2022-11-16T06:01:13.105Z,2.25
2022-11-16T06:03:42.319Z,2.88
2022-11-16T06:06:11.587Z,1.80
2022-11-16T06:08:40.633Z,1.83
2022-11-16T06:11:11.736Z,2.00
2022-11-16T06:13:41.019Z,1.50
2022-11-16T06:16:10.325Z,1.77
2022-11-16T06:18:44.887Z,1.75
2022-11-16T06:21:15.703Z,2.10
2022-11-16T06:23:48.098Z,2.20
2022-11-16T06:26:17.020Z,1.95
2022-11-16T06:28:46.052Z,2.08
2022-11-16T06:31:21.042Z,2.20
2022-11-16T06:33:50.041Z,2.08
2022-11-16T06:36:19.014Z,1.77
2022-11-16T06:38:47.860Z,1.80
2022-11-16T06:41:18.340Z,1.77
2022-11-16T06:43:50.102Z,3.78
2022-11-16T06:46:19.126Z,2.05
2022-11-16T06:48:53.728Z,2.15
2022-11-16T06:51:22.721Z,2.33
2022-11-16T06:53:51.662Z,1.70
2022-11-16T06:56:20.770Z,1.70
2022-11-16T06:58:53.254Z,1.60
2022-11-16T07:01:22.685Z,1.67
2022-11-16T07:03:51.647Z,1.73
2022-11-16T07:06:20.542Z,1.98
2022-11-16T07:08:49.429Z,1.70
2022-11-16T07:11:18.384Z,1.60
2022-11-16T07:13:47.728Z,1.70
2022-11-16T07:16:17.078Z,2.10
2022-11-16T07:18:46.066Z,1.80
2022-11-16T07:21:17.017Z,1.45
2022-11-16T07:23:46.584Z,1.88
2022-11-16T07:26:15.575Z,3.35
2022-11-16T07:28:48.151Z,1.73
2022-11-16T07:31:17.964Z,1.90
2022-11-16T07:33:46.931Z,1.50
2022-11-16T07:36:16.557Z,1.83
2022-11-16T07:38:45.589Z,1.85
2022-11-16T07:41:22.829Z,2.05
2022-11-16T07:43:53.402Z,1.70
2022-11-16T07:49:18.363Z,1.80
2022-11-16T07:51:51.023Z,2.13
2022-11-16T07:54:19.954Z,2.20
2022-11-16T07:56:48.915Z,1.77
2022-11-16T07:59:17.913Z,1.90
2022-11-16T08:01:49.399Z,1.73
2022-11-16T08:04:18.718Z,1.95
2022-11-16T08:06:48.069Z,1.85
2022-11-16T08:09:17.006Z,2.20
2022-11-16T08:11:46.004Z,1.75
2022-11-16T08:14:15.126Z,1.70
2022-11-16T08:16:44.602Z,1.92
2022-11-16T08:19:13.635Z,5.70
2022-11-16T08:21:42.736Z,1.90
2022-11-16T08:24:11.854Z,1.65
2022-11-16T08:26:44.007Z,2.10
2022-11-16T08:29:13.093Z,1.90
2022-11-16T08:31:42.112Z,1.65
2022-11-16T08:34:11.134Z,1.60
2022-11-16T08:36:40.109Z,1.70
2022-11-16T08:39:09.205Z,2.03
2022-11-16T08:41:38.844Z,1.83
2022-11-16T08:44:07.815Z,1.50
2022-11-16T08:46:37.028Z,1.58
2022-11-16T08:49:06.079Z,1.83
2022-11-16T08:51:35.153Z,1.88
2022-11-16T08:54:05.169Z,6.25
2022-11-16T08:56:36.717Z,1.90
2022-11-16T08:59:06.152Z,2.63
2022-11-16T09:01:35.349Z,1.85
2022-11-16T09:04:04.366Z,1.63
2022-11-16T09:06:33.651Z,1.60
2022-11-16T09:09:02.738Z,1.67
2022-11-16T09:11:31.855Z,1.45
2022-11-16T09:14:01.170Z,1.73
2022-11-16T09:16:30.283Z,1.48
2022-11-16T09:18:59.249Z,1.60
2022-11-16T09:21:30.293Z,1.75
2022-11-16T09:24:00.153Z,2.15
2022-11-16T09:26:29.582Z,1.45
2022-11-16T09:29:04.435Z,1.67
2022-11-16T09:31:38.633Z,1.30
2022-11-16T09:37:09.760Z,1.50
2022-11-16T09:39:41.701Z,1.67
2022-11-16T09:42:41.304Z,1.85
2022-11-16T09:45:42.918Z,1.70
2022-11-16T09:48:16.200Z,2.58
2022-11-16T09:50:50.751Z,1.88
2022-11-16T09:53:42.749Z,2.13
2022-11-16T09:56:31.280Z,1.70
2022-11-16T09:59:18.119Z,1.70
2022-11-16T10:01:47.331Z,2.08
2022-11-16T10:04:39.558Z,1.67
2022-11-16T10:07:17.738Z,1.98
2022-11-16T10:09:48.035Z,1.80
2022-11-16T10:12:46.679Z,2.05
2022-11-16T10:15:35.903Z,1.92
2022-11-16T10:18:18.824Z,1.83
2022-11-16T10:20:59.999Z,2.23
2022-11-16T10:23:47.371Z,2.97
2022-11-16T10:26:37.246Z,1.83
2022-11-16T10:29:47.977Z,1.80
2022-11-16T10:32:29.217Z,2.00
2022-11-16T10:35:14.286Z,1.98
2022-11-16T10:37:53.487Z,1.92
2022-11-16T10:40:47.265Z,2.22
2022-11-16T10:43:17.849Z,3.60
2022-11-16T10:46:25.817Z,5.35
2022-11-16T10:49:13.197Z,2.03
2022-11-16T10:51:42.159Z,2.15
2022-11-16T10:54:18.928Z,2.33
2022-11-16T10:56:53.207Z,2.20
2022-11-16T10:59:22.843Z,2.20
2022-11-16T11:01:54.660Z,2.25
2022-11-16T11:04:28.878Z,2.38
2022-11-16T11:07:03.106Z,2.40
2022-11-16T11:09:39.970Z,2.88
2022-11-16T11:12:41.179Z,3.08
2022-11-16T11:15:13.007Z,3.28
2022-11-16T11:17:43.413Z,3.20
2022-11-16T11:20:18.491Z,3.40
2022-11-16T11:22:56.597Z,3.33
2022-11-16T11:25:35.163Z,4.22
2022-11-16T11:28:29.012Z,4.90
2022-11-16T11:31:00.241Z,5.25
2022-11-16T11:33:39.274Z,4.35
2022-11-16T11:36:19.835Z,4.10
2022-11-16T11:39:28.667Z,4.50
2022-11-16T11:42:14.343Z,4.50
2022-11-16T11:44:58.216Z,5.10
2022-11-16T11:47:58.009Z,4.30
2022-11-16T11:50:53.237Z,4.45
2022-11-16T11:53:51.071Z,4.32
2022-11-16T11:56:21.088Z,4.10
2022-11-16T11:58:51.010Z,4.57
2022-11-16T12:01:40.397Z,4.72
2022-11-16T12:04:51.415Z,5.85
2022-11-16T12:07:23.432Z,5.68
2022-11-16T12:10:08.423Z,5.90
2022-11-16T12:13:01.478Z,7.72
2022-11-16T12:16:03.984Z,7.45
2022-11-16T12:18:39.144Z,9.32
2022-11-16T12:21:15.009Z,7.05
2022-11-16T12:24:11.417Z,7.10
2022-11-16T12:26:49.252Z,22.50
2022-11-16T12:29:51.994Z,9.25
2022-11-16T12:32:41.748Z,9.35
2022-11-16T12:35:32.204Z,9.43
2022-11-16T12:38:40.580Z,10.13
2022-11-16T12:41:26.042Z,9.57
2022-11-16T12:44:04.359Z,9.35
2022-11-16T12:46:53.813Z,9.32
2022-11-16T12:50:02.763Z,8.32
2022-11-16T12:52:53.173Z,11.48
2022-11-16T12:55:28.563Z,10.13
2022-11-16T12:58:11.850Z,9.90
2022-11-16T13:01:10.767Z,10.93
2022-11-16T13:03:56.756Z,12.60
2022-11-16T13:06:33.487Z,11.90
2022-11-16T13:09:18.982Z,12.00
2022-11-16T13:11:58.598Z,11.13
2022-11-16T13:14:40.536Z,15.32
2022-11-16T13:17:09.696Z,13.20
2022-11-16T13:19:43.416Z,13.05
2022-11-16T13:25:32.179Z,12.93
2022-11-16T13:28:41.322Z,11.50
2022-11-16T13:31:20.593Z,13.85
2022-11-16T13:34:02.719Z,10.85
2022-11-16T13:36:34.458Z,8.50
2022-11-16T13:39:03.573Z,12.52
2022-11-16T13:41:39.835Z,12.18
2022-11-16T13:44:22.651Z,10.70
2022-11-16T13:46:58.277Z,10.35
2022-11-16T13:49:42.567Z,7.85
2022-11-16T13:52:23.854Z,8.88
2022-11-16T13:54:56.482Z,7.53
2022-11-16T13:57:29.044Z,7.82
2022-11-16T14:00:34.990Z,9.05
2022-11-16T14:03:19.238Z,9.77
2022-11-16T14:05:51.967Z,9.30
2022-11-16T14:08:38.355Z,9.40
2022-11-16T14:11:37.728Z,7.50
2022-11-16T14:14:15.214Z,7.45
2022-11-16T14:16:50.770Z,10.90
2022-11-16T14:19:50.382Z,9.85
2022-11-16T14:22:40.923Z,10.30
2022-11-16T14:25:18.805Z,7.75
2022-11-16T14:28:33.594Z,9.20
2022-11-16T14:31:14.685Z,8.52
2022-11-16T14:33:44.908Z,9.23
2022-11-16T14:36:13.943Z,9.65
2022-11-16T14:38:45.123Z,10.18
2022-11-16T14:41:26.202Z,10.13
2022-11-16T14:43:57.911Z,10.50
2022-11-16T14:46:37.717Z,10.90
2022-11-16T14:49:12.829Z,10.55
2022-11-16T14:51:49.033Z,11.02
2022-11-16T14:54:34.919Z,10.85
2022-11-16T14:57:07.466Z,10.18
2022-11-16T14:59:36.471Z,10.35
2022-11-16T15:02:19.199Z,10.00
2022-11-16T15:04:48.724Z,11.20
2022-11-16T15:07:19.581Z,10.05
2022-11-16T15:09:54.417Z,10.65
2022-11-16T15:12:47.008Z,11.93
2022-11-16T15:15:18.738Z,10.05
2022-11-16T15:18:01.403Z,11.07
2022-11-16T15:20:32.330Z,9.65
2022-11-16T15:23:02.758Z,9.77
2022-11-16T15:25:41.786Z,10.45
2022-11-16T15:28:19.158Z,8.75
2022-11-16T15:30:52.188Z,8.65
2022-11-16T15:33:39.355Z,10.03
2022-11-16T15:36:34.626Z,12.10
2022-11-16T15:39:05.509Z,13.55
2022-11-16T15:41:35.666Z,10.40
2022-11-16T15:44:14.470Z,10.00
2022-11-16T15:46:48.515Z,10.15
2022-11-16T15:49:31.387Z,10.20
2022-11-16T15:52:01.613Z,9.70
2022-11-16T15:54:52.121Z,8.85
2022-11-16T15:57:23.161Z,10.75
2022-11-16T15:59:58.255Z,9.60
2022-11-16T16:02:30.014Z,9.90
2022-11-16T16:04:59.098Z,11.00
2022-11-16T16:07:45.391Z,9.98
2022-11-16T16:10:20.470Z,10.80
2022-11-16T16:12:55.647Z,10.70
2022-11-16T16:15:31.041Z,10.77
2022-11-16T16:18:02.054Z,11.68
2022-11-16T16:20:33.455Z,13.02
2022-11-16T16:23:28.620Z,10.40
2022-11-16T16:25:57.487Z,11.48
2022-11-16T16:28:26.493Z,10.55
2022-11-16T16:30:55.395Z,11.65
2022-11-16T16:33:29.655Z,23.88
2022-11-16T16:35:58.600Z,33.72
2022-11-16T16:38:27.595Z,38.70
2022-11-16T16:41:05.637Z,35.03
2022-11-16T16:43:35.679Z,32.55
2022-11-16T16:46:05.985Z,29.40
2022-11-16T16:48:34.971Z,30.77
2022-11-16T16:51:03.842Z,39.53
2022-11-16T16:53:33.106Z,47.70
2022-11-16T16:56:02.935Z,20.48
2022-11-16T16:58:31.935Z,14.48
2022-11-16T17:01:04.798Z,14.38
2022-11-16T17:03:34.040Z,24.05
2022-11-16T17:06:06.482Z,14.95
2022-11-16T17:08:37.093Z,13.88
2022-11-16T17:11:06.768Z,13.52
2022-11-16T17:13:35.979Z,14.77
2022-11-16T17:16:08.463Z,14.85
2022-11-16T17:18:37.402Z,11.85
2022-11-16T17:21:10.682Z,10.93
2022-11-16T17:23:39.659Z,11.60
2022-11-16T17:26:10.048Z,11.65
2022-11-16T17:28:39.042Z,12.63
2022-11-16T17:31:10.959Z,10.93
2022-11-16T17:33:41.736Z,10.82
2022-11-16T17:36:13.440Z,11.50
2022-11-16T17:38:42.869Z,10.70
2022-11-16T17:41:16.929Z,12.38
2022-11-16T17:43:48.248Z,11.77
2022-11-16T17:46:19.802Z,11.60
2022-11-16T17:48:49.580Z,12.43
2022-11-16T17:51:21.377Z,12.35
2022-11-16T17:53:53.469Z,11.88
2022-11-16T17:56:24.838Z,11.85
2022-11-16T17:58:56.175Z,11.52
2022-11-16T18:01:25.714Z,11.60
2022-11-16T18:03:55.006Z,11.18
2022-11-16T18:06:26.291Z,11.98
2022-11-16T18:08:55.830Z,11.55
2022-11-16T18:11:27.423Z,12.10
2022-11-16T18:13:58.391Z,11.68
2022-11-16T18:16:30.022Z,10.43
2022-11-16T18:19:04.510Z,11.07
2022-11-16T18:21:39.315Z,10.65
2022-11-16T18:24:08.617Z,11.57
2022-11-16T18:26:38.077Z,10.60
2022-11-16T18:29:07.919Z,10.98
2022-11-16T18:31:36.965Z,10.60
2022-11-16T18:34:06.462Z,10.82
2022-11-16T18:36:35.524Z,11.02
2022-11-16T18:39:04.548Z,11.05
2022-11-16T18:41:34.158Z,11.05
2022-11-16T18:44:04.054Z,10.88
2022-11-16T18:46:34.200Z,9.43
2022-11-16T18:49:03.203Z,9.35
2022-11-16T18:51:32.282Z,8.18
2022-11-16T18:54:01.248Z,8.25
2022-11-16T18:56:30.268Z,8.60
2022-11-16T18:58:59.664Z,8.07
2022-11-16T19:01:29.256Z,8.07
2022-11-16T19:03:58.571Z,8.50
2022-11-16T19:06:27.823Z,9.75
2022-11-16T19:09:00.511Z,7.78
2022-11-16T19:11:30.301Z,7.43
2022-11-16T19:14:09.897Z,8.07
2022-11-16T19:16:43.384Z,8.57
2022-11-16T19:19:16.598Z,8.07
2022-11-16T19:21:45.504Z,7.55
2022-11-16T19:24:14.527Z,7.78
2022-11-16T19:26:43.743Z,8.60
2022-11-16T19:29:12.689Z,7.57
2022-11-16T19:31:41.643Z,8.13
2022-11-16T19:34:14.323Z,7.40
2022-11-16T19:36:43.511Z,8.18
2022-11-16T19:39:12.597Z,8.02
2022-11-16T19:41:41.587Z,7.90
2022-11-16T19:44:10.690Z,7.63
2022-11-16T19:46:39.737Z,8.48
2022-11-16T19:49:14.489Z,7.68
2022-11-16T19:51:46.054Z,7.82
2022-11-16T19:54:16.012Z,8.50
2022-11-16T19:56:47.227Z,7.47
2022-11-16T19:59:17.241Z,8.32
2022-11-16T20:01:46.194Z,7.95
2022-11-16T20:04:16.452Z,8.05
2022-11-16T20:06:45.473Z,8.63
2022-11-16T20:09:14.429Z,7.93
2022-11-16T20:11:44.112Z,8.07
2022-11-16T20:14:14.838Z,7.97
2022-11-16T20:16:47.084Z,8.00
2022-11-16T20:19:16.994Z,7.80
2022-11-16T20:21:46.545Z,7.00
2022-11-16T20:24:17.711Z,6.60
2022-11-16T20:26:49.484Z,7.57
2022-11-16T20:29:20.018Z,8.40
2022-11-16T20:31:49.025Z,7.15
2022-11-16T20:34:19.616Z,8.40
2022-11-16T20:36:51.907Z,6.82
2022-11-16T20:39:22.416Z,7.13
2022-11-16T20:41:51.458Z,6.38
2022-11-16T20:44:23.177Z,6.18
2022-11-16T20:46:55.539Z,7.07
2022-11-16T20:49:24.580Z,7.47
2022-11-16T20:51:53.603Z,6.93
2022-11-16T20:54:22.693Z,5.95
2022-11-16T20:56:52.097Z,7.00
2022-11-16T20:59:21.129Z,8.10
2022-11-16T21:01:53.523Z,7.60
2022-11-16T21:04:22.876Z,7.45
2022-11-16T21:06:51.869Z,7.45
2022-11-16T21:09:23.816Z,7.05
2022-11-16T21:12:11.347Z,7.15
2022-11-16T21:14:40.434Z,7.28
2022-11-16T21:17:09.322Z,7.47
2022-11-16T21:19:38.356Z,7.10
2022-11-16T21:22:07.273Z,6.80
2022-11-16T21:24:36.302Z,7.00
2022-11-16T21:27:05.334Z,7.43
2022-11-16T21:29:34.279Z,5.70
2022-11-16T21:32:03.990Z,6.90
2022-11-16T21:34:38.768Z,7.20
2022-11-16T21:37:09.034Z,6.18
2022-11-16T21:39:37.985Z,6.32
2022-11-16T21:42:07.075Z,5.82
2022-11-16T21:44:44.785Z,6.47
2022-11-16T21:47:14.719Z,6.85
2022-11-16T21:50:08.632Z,6.10
2022-11-16T21:52:32.700Z,6.38
2022-11-16T21:55:01.899Z,6.18
2022-11-16T21:57:30.832Z,6.03
2022-11-16T21:59:59.944Z,5.63
2022-11-16T22:02:28.918Z,5.88
2022-11-16T22:05:16.163Z,5.43
2022-11-16T22:07:45.142Z,5.38
2022-11-16T22:10:14.904Z,6.30
2022-11-16T22:12:43.915Z,5.68
2022-11-16T22:15:13.205Z,5.05
2022-11-16T22:17:45.716Z,5.22
2022-11-16T22:20:14.883Z,5.70
2022-11-16T22:22:43.932Z,5.03
2022-11-16T22:25:15.003Z,4.68
2022-11-16T22:28:13.442Z,4.22
2022-11-16T22:30:32.936Z,4.93
2022-11-16T22:33:01.878Z,4.55
2022-11-16T22:35:30.823Z,4.35
2022-11-16T22:38:00.647Z,4.68
2022-11-16T22:40:29.603Z,4.28
2022-11-16T22:42:59.655Z,3.75
2022-11-16T22:45:28.790Z,4.05
2022-11-16T22:47:57.750Z,4.22
2022-11-16T22:50:26.700Z,3.97
2022-11-16T22:52:55.660Z,3.85
2022-11-16T22:55:24.605Z,3.60
2022-11-16T22:57:53.642Z,3.65
2022-11-16T23:00:22.713Z,3.65
2022-11-16T23:02:53.127Z,4.13
2022-11-16T23:05:22.167Z,3.80
2022-11-16T23:07:51.172Z,4.97
2022-11-16T23:10:20.319Z,3.53
2022-11-16T23:13:07.362Z,3.50
2022-11-16T23:15:51.211Z,2.72
2022-11-16T23:18:20.854Z,3.38
2022-11-16T23:21:08.012Z,3.38
2022-11-16T23:23:55.198Z,3.53
2022-11-16T23:26:43.828Z,3.55
2022-11-16T23:29:13.281Z,3.92
2022-11-16T23:31:42.248Z,3.83
2022-11-16T23:34:11.229Z,3.65
2022-11-16T23:36:40.107Z,4.15
2022-11-16T23:39:09.578Z,3.78
2022-11-16T23:41:56.638Z,3.63
2022-11-16T23:44:25.524Z,5.63
2022-11-16T23:46:54.513Z,6.90
2022-11-16T23:49:23.438Z,5.88
2022-11-16T23:51:52.681Z,4.47
2022-11-16T23:54:21.779Z,4.72
2022-11-16T23:56:50.655Z,4.22
2022-11-16T23:59:19.712Z,3.88
